sensor_id;sensor_type;location;lat;lon;timestamp;P1;durP1;ratioP1;P2;durP2;ratioP2
70270;SDS011;57680;54.292;18.598;2023-04-12T00:00:25;12.53;;;4.97;;
70270;SDS011;57680;54.292;18.598;2023-04-12T00:02:51;12.47;;;4.57;;
70270;SDS011;57680;54.292;18.598;2023-04-12T00:05:16;11.27;;;4.63;;
70270;SDS011;57680;54.292;18.598;2023-04-12T00:07:42;12.77;;;4.83;;
70270;SDS011;57680;54.292;18.598;2023-04-12T00:10:07;12.87;;;4.50;;
70270;SDS011;57680;54.292;18.598;2023-04-12T00:12:33;12.15;;;4.55;;
70270;SDS011;57680;54.292;18.598;2023-04-12T00:14:58;11.55;;;4.25;;
70270;SDS011;57680;54.292;18.598;2023-04-12T00:17:24;11.47;;;4.40;;
70270;SDS011;57680;54.292;18.598;2023-04-12T00:19:49;11.53;;;4.30;;
70270;SDS011;57680;54.292;18.598;2023-04-12T00:22:15;11.40;;;4.80;;
70270;SDS011;57680;54.292;18.598;2023-04-12T00:24:40;9.93;;;4.20;;
70270;SDS011;57680;54.292;18.598;2023-04-12T00:27:06;12.80;;;4.23;;
70270;SDS011;57680;54.292;18.598;2023-04-12T00:29:32;13.13;;;5.13;;
70270;SDS011;57680;54.292;18.598;2023-04-12T00:31:58;14.73;;;5.43;;
70270;SDS011;57680;54.292;18.598;2023-04-12T00:34:23;13.13;;;5.03;;
70270;SDS011;57680;54.292;18.598;2023-04-12T00:36:49;12.30;;;4.67;;
70270;SDS011;57680;54.292;18.598;2023-04-12T00:39:15;11.23;;;4.47;;
70270;SDS011;57680;54.292;18.598;2023-04-12T00:41:40;12.10;;;4.90;;
70270;SDS011;57680;54.292;18.598;2023-04-12T00:44:06;12.83;;;4.43;;
70270;SDS011;57680;54.292;18.598;2023-04-12T00:46:31;12.43;;;4.50;;
70270;SDS011;57680;54.292;18.598;2023-04-12T00:48:57;11.68;;;4.63;;
70270;SDS011;57680;54.292;18.598;2023-04-12T00:51:23;12.83;;;4.70;;
70270;SDS011;57680;54.292;18.598;2023-04-12T00:53:48;12.07;;;4.90;;
70270;SDS011;57680;54.292;18.598;2023-04-12T00:56:13;12.00;;;4.97;;
70270;SDS011;57680;54.292;18.598;2023-04-12T00:58:39;11.83;;;4.13;;
70270;SDS011;57680;54.292;18.598;2023-04-12T01:01:05;11.13;;;4.28;;
70270;SDS011;57680;54.292;18.598;2023-04-12T01:03:30;10.07;;;4.00;;
70270;SDS011;57680;54.292;18.598;2023-04-12T01:06:11;12.67;;;4.77;;
70270;SDS011;57680;54.292;18.598;2023-04-12T01:11:47;12.77;;;4.53;;
70270;SDS011;57680;54.292;18.598;2023-04-12T01:14:27;12.93;;;4.72;;
70270;SDS011;57680;54.292;18.598;2023-04-12T01:16:59;11.30;;;4.50;;
70270;SDS011;57680;54.292;18.598;2023-04-12T01:27:49;12.88;;;4.80;;
70270;SDS011;57680;54.292;18.598;2023-04-12T01:30:18;12.18;;;5.32;;
70270;SDS011;57680;54.292;18.598;2023-04-12T01:32:45;12.63;;;5.10;;
70270;SDS011;57680;54.292;18.598;2023-04-12T01:35:14;13.65;;;5.65;;
70270;SDS011;57680;54.292;18.598;2023-04-12T01:37:42;14.63;;;5.53;;
70270;SDS011;57680;54.292;18.598;2023-04-12T01:40:08;11.88;;;5.20;;
70270;SDS011;57680;54.292;18.598;2023-04-12T01:42:34;11.95;;;5.50;;
70270;SDS011;57680;54.292;18.598;2023-04-12T01:45:00;14.43;;;4.87;;
70270;SDS011;57680;54.292;18.598;2023-04-12T01:47:27;13.40;;;5.18;;
70270;SDS011;57680;54.292;18.598;2023-04-12T01:50:13;13.53;;;5.13;;
70270;SDS011;57680;54.292;18.598;2023-04-12T01:52:47;13.65;;;5.20;;
70270;SDS011;57680;54.292;18.598;2023-04-12T01:55:16;13.52;;;5.38;;
70270;SDS011;57680;54.292;18.598;2023-04-12T01:57:45;12.43;;;4.85;;
70270;SDS011;57680;54.292;18.598;2023-04-12T02:00:12;13.38;;;5.10;;
70270;SDS011;57680;54.292;18.598;2023-04-12T02:02:39;13.67;;;5.10;;
70270;SDS011;57680;54.292;18.598;2023-04-12T02:05:05;12.73;;;4.78;;
70270;SDS011;57680;54.292;18.598;2023-04-12T02:07:33;12.15;;;4.78;;
70270;SDS011;57680;54.292;18.598;2023-04-12T02:09:59;12.45;;;5.60;;
70270;SDS011;57680;54.292;18.598;2023-04-12T02:12:24;13.10;;;4.97;;
70270;SDS011;57680;54.292;18.598;2023-04-12T02:14:50;13.73;;;5.00;;
70270;SDS011;57680;54.292;18.598;2023-04-12T02:17:15;14.00;;;5.70;;
70270;SDS011;57680;54.292;18.598;2023-04-12T02:19:41;14.30;;;5.45;;
70270;SDS011;57680;54.292;18.598;2023-04-12T02:22:07;14.70;;;5.47;;
70270;SDS011;57680;54.292;18.598;2023-04-12T02:24:32;13.77;;;5.60;;
70270;SDS011;57680;54.292;18.598;2023-04-12T02:26:58;13.88;;;5.95;;
70270;SDS011;57680;54.292;18.598;2023-04-12T02:29:23;15.07;;;5.70;;
70270;SDS011;57680;54.292;18.598;2023-04-12T02:31:50;13.33;;;5.77;;
70270;SDS011;57680;54.292;18.598;2023-04-12T02:34:15;13.80;;;5.18;;
70270;SDS011;57680;54.292;18.598;2023-04-12T02:36:40;14.23;;;5.50;;
70270;SDS011;57680;54.292;18.598;2023-04-12T02:39:10;19.45;;;5.60;;
70270;SDS011;57680;54.292;18.598;2023-04-12T02:41:35;14.00;;;5.57;;
70270;SDS011;57680;54.292;18.598;2023-04-12T02:44:01;13.53;;;5.63;;
70270;SDS011;57680;54.292;18.598;2023-04-12T02:46:26;14.10;;;5.80;;
70270;SDS011;57680;54.292;18.598;2023-04-12T02:48:51;14.10;;;5.60;;
70270;SDS011;57680;54.292;18.598;2023-04-12T02:51:17;12.40;;;5.13;;
70270;SDS011;57680;54.292;18.598;2023-04-12T02:53:42;13.03;;;5.30;;
70270;SDS011;57680;54.292;18.598;2023-04-12T02:56:08;15.10;;;5.68;;
70270;SDS011;57680;54.292;18.598;2023-04-12T02:58:34;15.33;;;6.07;;
70270;SDS011;57680;54.292;18.598;2023-04-12T03:01:00;14.00;;;5.70;;
70270;SDS011;57680;54.292;18.598;2023-04-12T03:03:26;15.03;;;5.40;;
70270;SDS011;57680;54.292;18.598;2023-04-12T03:05:51;12.73;;;4.72;;
70270;SDS011;57680;54.292;18.598;2023-04-12T03:08:17;12.80;;;5.20;;
70270;SDS011;57680;54.292;18.598;2023-04-12T03:10:43;13.63;;;5.40;;
70270;SDS011;57680;54.292;18.598;2023-04-12T03:13:08;14.43;;;4.87;;
70270;SDS011;57680;54.292;18.598;2023-04-12T03:15:34;13.00;;;5.70;;
70270;SDS011;57680;54.292;18.598;2023-04-12T03:17:59;13.20;;;4.90;;
70270;SDS011;57680;54.292;18.598;2023-04-12T03:20:25;14.90;;;5.90;;
70270;SDS011;57680;54.292;18.598;2023-04-12T03:22:50;14.07;;;5.87;;
70270;SDS011;57680;54.292;18.598;2023-04-12T03:25:16;13.13;;;5.35;;
70270;SDS011;57680;54.292;18.598;2023-04-12T03:27:41;12.97;;;4.87;;
70270;SDS011;57680;54.292;18.598;2023-04-12T03:30:07;11.90;;;4.50;;
70270;SDS011;57680;54.292;18.598;2023-04-12T03:32:33;13.88;;;5.15;;
70270;SDS011;57680;54.292;18.598;2023-04-12T03:34:58;12.30;;;4.90;;
70270;SDS011;57680;54.292;18.598;2023-04-12T03:37:24;11.30;;;4.77;;
70270;SDS011;57680;54.292;18.598;2023-04-12T03:39:49;14.15;;;5.13;;
70270;SDS011;57680;54.292;18.598;2023-04-12T03:42:15;11.90;;;4.60;;
70270;SDS011;57680;54.292;18.598;2023-04-12T03:44:40;16.03;;;4.97;;
70270;SDS011;57680;54.292;18.598;2023-04-12T03:47:06;12.77;;;5.30;;
70270;SDS011;57680;54.292;18.598;2023-04-12T03:49:31;15.70;;;5.63;;
70270;SDS011;57680;54.292;18.598;2023-04-12T03:51:57;12.30;;;5.40;;
70270;SDS011;57680;54.292;18.598;2023-04-12T03:54:22;13.67;;;5.37;;
70270;SDS011;57680;54.292;18.598;2023-04-12T03:56:47;13.23;;;4.93;;
70270;SDS011;57680;54.292;18.598;2023-04-12T03:59:13;13.97;;;4.70;;
70270;SDS011;57680;54.292;18.598;2023-04-12T04:01:39;16.17;;;5.60;;
70270;SDS011;57680;54.292;18.598;2023-04-12T04:04:05;13.15;;;5.35;;
70270;SDS011;57680;54.292;18.598;2023-04-12T04:06:31;11.48;;;4.45;;
70270;SDS011;57680;54.292;18.598;2023-04-12T04:08:56;12.67;;;4.47;;
70270;SDS011;57680;54.292;18.598;2023-04-12T04:11:22;11.75;;;4.63;;
70270;SDS011;57680;54.292;18.598;2023-04-12T04:13:48;13.43;;;5.00;;
70270;SDS011;57680;54.292;18.598;2023-04-12T04:16:13;12.82;;;5.15;;
70270;SDS011;57680;54.292;18.598;2023-04-12T04:18:39;12.50;;;4.73;;
70270;SDS011;57680;54.292;18.598;2023-04-12T04:21:05;12.43;;;4.70;;
70270;SDS011;57680;54.292;18.598;2023-04-12T04:23:31;15.43;;;5.00;;
70270;SDS011;57680;54.292;18.598;2023-04-12T04:25:57;12.50;;;4.68;;
70270;SDS011;57680;54.292;18.598;2023-04-12T04:28:22;12.53;;;4.90;;
70270;SDS011;57680;54.292;18.598;2023-04-12T04:30:48;12.38;;;4.35;;
70270;SDS011;57680;54.292;18.598;2023-04-12T04:33:13;13.60;;;4.57;;
70270;SDS011;57680;54.292;18.598;2023-04-12T04:35:39;14.07;;;5.23;;
70270;SDS011;57680;54.292;18.598;2023-04-12T04:38:04;13.97;;;5.10;;
70270;SDS011;57680;54.292;18.598;2023-04-12T04:40:30;13.83;;;4.33;;
70270;SDS011;57680;54.292;18.598;2023-04-12T04:42:56;12.20;;;4.80;;
70270;SDS011;57680;54.292;18.598;2023-04-12T04:45:22;13.68;;;5.68;;
70270;SDS011;57680;54.292;18.598;2023-04-12T04:47:48;13.48;;;5.03;;
70270;SDS011;57680;54.292;18.598;2023-04-12T04:50:13;14.50;;;5.40;;
70270;SDS011;57680;54.292;18.598;2023-04-12T04:52:39;13.23;;;4.90;;
70270;SDS011;57680;54.292;18.598;2023-04-12T04:55:05;13.87;;;5.50;;
70270;SDS011;57680;54.292;18.598;2023-04-12T04:57:31;14.43;;;4.78;;
70270;SDS011;57680;54.292;18.598;2023-04-12T04:59:56;16.02;;;5.65;;
70270;SDS011;57680;54.292;18.598;2023-04-12T05:02:21;14.83;;;4.90;;
70270;SDS011;57680;54.292;18.598;2023-04-12T05:04:47;16.00;;;5.50;;
70270;SDS011;57680;54.292;18.598;2023-04-12T05:07:12;15.67;;;4.90;;
70270;SDS011;57680;54.292;18.598;2023-04-12T05:09:38;17.07;;;5.93;;
70270;SDS011;57680;54.292;18.598;2023-04-12T05:12:04;16.00;;;5.43;;
70270;SDS011;57680;54.292;18.598;2023-04-12T05:14:29;14.63;;;5.37;;
70270;SDS011;57680;54.292;18.598;2023-04-12T05:16:55;14.60;;;5.22;;
70270;SDS011;57680;54.292;18.598;2023-04-12T05:19:20;16.27;;;5.27;;
70270;SDS011;57680;54.292;18.598;2023-04-12T05:21:46;16.27;;;5.70;;
70270;SDS011;57680;54.292;18.598;2023-04-12T05:24:11;15.33;;;5.70;;
70270;SDS011;57680;54.292;18.598;2023-04-12T05:26:36;16.10;;;6.20;;
70270;SDS011;57680;54.292;18.598;2023-04-12T05:29:02;16.53;;;5.63;;
70270;SDS011;57680;54.292;18.598;2023-04-12T05:31:27;14.90;;;5.60;;
70270;SDS011;57680;54.292;18.598;2023-04-12T05:33:53;15.70;;;5.77;;
70270;SDS011;57680;54.292;18.598;2023-04-12T05:36:19;16.90;;;6.47;;
70270;SDS011;57680;54.292;18.598;2023-04-12T05:38:45;16.65;;;6.20;;
70270;SDS011;57680;54.292;18.598;2023-04-12T05:41:10;15.43;;;6.40;;
70270;SDS011;57680;54.292;18.598;2023-04-12T05:43:35;16.97;;;6.00;;
70270;SDS011;57680;54.292;18.598;2023-04-12T05:46:01;15.80;;;6.57;;
70270;SDS011;57680;54.292;18.598;2023-04-12T05:48:26;15.10;;;6.77;;
70270;SDS011;57680;54.292;18.598;2023-04-12T05:50:52;18.75;;;7.18;;
70270;SDS011;57680;54.292;18.598;2023-04-12T05:53:18;18.17;;;7.57;;
70270;SDS011;57680;54.292;18.598;2023-04-12T05:55:44;16.85;;;6.03;;
70270;SDS011;57680;54.292;18.598;2023-04-12T05:58:10;16.80;;;6.07;;
70270;SDS011;57680;54.292;18.598;2023-04-12T06:00:36;15.90;;;5.67;;
70270;SDS011;57680;54.292;18.598;2023-04-12T06:03:03;15.57;;;6.63;;
70270;SDS011;57680;54.292;18.598;2023-04-12T06:05:28;17.53;;;6.20;;
70270;SDS011;57680;54.292;18.598;2023-04-12T06:07:53;13.87;;;5.50;;
70270;SDS011;57680;54.292;18.598;2023-04-12T06:10:19;14.07;;;5.70;;
70270;SDS011;57680;54.292;18.598;2023-04-12T06:12:45;16.03;;;5.60;;
70270;SDS011;57680;54.292;18.598;2023-04-12T06:15:11;14.20;;;5.60;;
70270;SDS011;57680;54.292;18.598;2023-04-12T06:17:36;16.37;;;5.97;;
70270;SDS011;57680;54.292;18.598;2023-04-12T06:20:03;14.02;;;5.97;;
70270;SDS011;57680;54.292;18.598;2023-04-12T06:22:29;17.23;;;5.75;;
70270;SDS011;57680;54.292;18.598;2023-04-12T06:24:54;16.00;;;6.00;;
70270;SDS011;57680;54.292;18.598;2023-04-12T06:27:19;15.63;;;5.25;;
70270;SDS011;57680;54.292;18.598;2023-04-12T06:29:45;14.07;;;5.87;;
70270;SDS011;57680;54.292;18.598;2023-04-12T06:32:10;13.17;;;4.67;;
70270;SDS011;57680;54.292;18.598;2023-04-12T06:34:36;11.63;;;4.87;;
70270;SDS011;57680;54.292;18.598;2023-04-12T06:37:02;12.75;;;5.07;;
70270;SDS011;57680;54.292;18.598;2023-04-12T06:39:27;12.03;;;4.47;;
70270;SDS011;57680;54.292;18.598;2023-04-12T06:41:52;11.67;;;4.57;;
70270;SDS011;57680;54.292;18.598;2023-04-12T06:44:18;12.43;;;4.60;;
70270;SDS011;57680;54.292;18.598;2023-04-12T06:46:43;14.40;;;5.40;;
70270;SDS011;57680;54.292;18.598;2023-04-12T06:49:09;12.97;;;4.73;;
70270;SDS011;57680;54.292;18.598;2023-04-12T06:51:34;11.23;;;4.30;;
70270;SDS011;57680;54.292;18.598;2023-04-12T06:54:00;15.00;;;5.00;;
70270;SDS011;57680;54.292;18.598;2023-04-12T06:56:25;13.18;;;5.18;;
70270;SDS011;57680;54.292;18.598;2023-04-12T06:58:50;17.53;;;7.10;;
70270;SDS011;57680;54.292;18.598;2023-04-12T07:01:16;18.83;;;7.73;;
70270;SDS011;57680;54.292;18.598;2023-04-12T07:03:42;22.35;;;8.00;;
70270;SDS011;57680;54.292;18.598;2023-04-12T07:06:07;19.23;;;8.40;;
70270;SDS011;57680;54.292;18.598;2023-04-12T07:08:35;24.57;;;9.33;;
70270;SDS011;57680;54.292;18.598;2023-04-12T07:11:01;22.55;;;9.35;;
70270;SDS011;57680;54.292;18.598;2023-04-12T07:13:28;22.50;;;9.57;;
70270;SDS011;57680;54.292;18.598;2023-04-12T07:15:53;22.98;;;8.57;;
70270;SDS011;57680;54.292;18.598;2023-04-12T07:18:19;23.40;;;9.90;;
70270;SDS011;57680;54.292;18.598;2023-04-12T07:20:45;22.48;;;9.68;;
70270;SDS011;57680;54.292;18.598;2023-04-12T07:23:12;23.97;;;9.80;;
70270;SDS011;57680;54.292;18.598;2023-04-12T07:25:37;19.17;;;8.45;;
70270;SDS011;57680;54.292;18.598;2023-04-12T07:28:03;22.33;;;8.30;;
70270;SDS011;57680;54.292;18.598;2023-04-12T07:30:29;18.48;;;8.05;;
70270;SDS011;57680;54.292;18.598;2023-04-12T07:32:55;18.60;;;7.77;;
70270;SDS011;57680;54.292;18.598;2023-04-12T07:35:20;21.60;;;8.93;;
70270;SDS011;57680;54.292;18.598;2023-04-12T07:37:46;24.67;;;8.90;;
70270;SDS011;57680;54.292;18.598;2023-04-12T07:40:11;25.90;;;10.60;;
70270;SDS011;57680;54.292;18.598;2023-04-12T07:42:36;29.40;;;11.90;;
70270;SDS011;57680;54.292;18.598;2023-04-12T07:45:02;25.30;;;10.83;;
70270;SDS011;57680;54.292;18.598;2023-04-12T07:47:27;26.30;;;10.30;;
70270;SDS011;57680;54.292;18.598;2023-04-12T07:49:53;23.67;;;9.90;;
70270;SDS011;57680;54.292;18.598;2023-04-12T07:52:18;28.48;;;11.50;;
70270;SDS011;57680;54.292;18.598;2023-04-12T07:54:45;29.13;;;11.20;;
70270;SDS011;57680;54.292;18.598;2023-04-12T07:57:10;28.75;;;11.35;;
70270;SDS011;57680;54.292;18.598;2023-04-12T07:59:36;26.17;;;11.30;;
70270;SDS011;57680;54.292;18.598;2023-04-12T08:02:01;28.37;;;10.87;;
70270;SDS011;57680;54.292;18.598;2023-04-12T08:04:27;27.57;;;10.90;;
70270;SDS011;57680;54.292;18.598;2023-04-12T08:06:53;27.57;;;10.50;;
70270;SDS011;57680;54.292;18.598;2023-04-12T08:09:19;20.60;;;8.02;;
70270;SDS011;57680;54.292;18.598;2023-04-12T08:11:44;22.87;;;9.30;;
70270;SDS011;57680;54.292;18.598;2023-04-12T08:14:10;22.57;;;9.50;;
70270;SDS011;57680;54.292;18.598;2023-04-12T08:16:36;19.90;;;8.40;;
70270;SDS011;57680;54.292;18.598;2023-04-12T08:19:01;21.10;;;8.88;;
70270;SDS011;57680;54.292;18.598;2023-04-12T08:21:27;21.83;;;8.90;;
70270;SDS011;57680;54.292;18.598;2023-04-12T08:23:52;18.07;;;7.60;;
70270;SDS011;57680;54.292;18.598;2023-04-12T08:26:18;15.98;;;6.53;;
70270;SDS011;57680;54.292;18.598;2023-04-12T08:28:43;19.73;;;7.97;;
70270;SDS011;57680;54.292;18.598;2023-04-12T08:31:09;18.63;;;8.07;;
70270;SDS011;57680;54.292;18.598;2023-04-12T08:33:34;19.17;;;8.10;;
70270;SDS011;57680;54.292;18.598;2023-04-12T08:35:59;22.77;;;8.80;;
70270;SDS011;57680;54.292;18.598;2023-04-12T08:38:25;22.23;;;9.03;;
70270;SDS011;57680;54.292;18.598;2023-04-12T08:40:50;22.83;;;9.37;;
70270;SDS011;57680;54.292;18.598;2023-04-12T08:43:16;26.20;;;10.20;;
70270;SDS011;57680;54.292;18.598;2023-04-12T08:45:42;26.48;;;9.77;;
70270;SDS011;57680;54.292;18.598;2023-04-12T08:48:08;26.83;;;9.77;;
70270;SDS011;57680;54.292;18.598;2023-04-12T08:50:34;21.03;;;8.63;;
70270;SDS011;57680;54.292;18.598;2023-04-12T08:53:00;21.33;;;8.50;;
70270;SDS011;57680;54.292;18.598;2023-04-12T08:55:25;19.87;;;8.77;;
70270;SDS011;57680;54.292;18.598;2023-04-12T08:57:52;24.60;;;8.60;;
70270;SDS011;57680;54.292;18.598;2023-04-12T09:00:18;20.25;;;8.65;;
70270;SDS011;57680;54.292;18.598;2023-04-12T09:02:44;20.50;;;7.88;;
70270;SDS011;57680;54.292;18.598;2023-04-12T09:05:10;22.30;;;8.60;;
70270;SDS011;57680;54.292;18.598;2023-04-12T09:07:35;19.73;;;8.40;;
70270;SDS011;57680;54.292;18.598;2023-04-12T09:10:01;21.83;;;8.60;;
70270;SDS011;57680;54.292;18.598;2023-04-12T09:12:26;23.58;;;8.68;;
70270;SDS011;57680;54.292;18.598;2023-04-12T09:17:34;20.00;;;8.10;;
70270;SDS011;57680;54.292;18.598;2023-04-12T09:20:00;19.13;;;7.63;;
70270;SDS011;57680;54.292;18.598;2023-04-12T09:22:46;17.83;;;7.53;;
70270;SDS011;57680;54.292;18.598;2023-04-12T09:25:12;18.83;;;7.77;;
70270;SDS011;57680;54.292;18.598;2023-04-12T09:27:45;22.02;;;8.88;;
70270;SDS011;57680;54.292;18.598;2023-04-12T09:30:11;23.60;;;9.38;;
70270;SDS011;57680;54.292;18.598;2023-04-12T09:32:37;22.17;;;8.95;;
70270;SDS011;57680;54.292;18.598;2023-04-12T09:35:03;20.70;;;8.47;;
70270;SDS011;57680;54.292;18.598;2023-04-12T09:37:28;19.77;;;8.90;;
70270;SDS011;57680;54.292;18.598;2023-04-12T09:40:07;20.05;;;7.70;;
70270;SDS011;57680;54.292;18.598;2023-04-12T09:42:33;17.55;;;7.00;;
70270;SDS011;57680;54.292;18.598;2023-04-12T09:45:00;20.70;;;7.50;;
70270;SDS011;57680;54.292;18.598;2023-04-12T09:47:43;19.67;;;7.85;;
70270;SDS011;57680;54.292;18.598;2023-04-12T09:50:23;17.70;;;7.40;;
70270;SDS011;57680;54.292;18.598;2023-04-12T09:52:49;18.42;;;7.00;;
70270;SDS011;57680;54.292;18.598;2023-04-12T09:55:16;19.95;;;7.90;;
70270;SDS011;57680;54.292;18.598;2023-04-12T09:57:44;17.30;;;6.93;;
70270;SDS011;57680;54.292;18.598;2023-04-12T10:00:10;20.60;;;8.50;;
70270;SDS011;57680;54.292;18.598;2023-04-12T10:02:37;18.20;;;6.75;;
70270;SDS011;57680;54.292;18.598;2023-04-12T10:05:04;18.75;;;6.95;;
70270;SDS011;57680;54.292;18.598;2023-04-12T10:07:30;18.70;;;6.87;;
70270;SDS011;57680;54.292;18.598;2023-04-12T10:09:56;15.43;;;5.85;;
70270;SDS011;57680;54.292;18.598;2023-04-12T10:12:23;13.30;;;5.13;;
70270;SDS011;57680;54.292;18.598;2023-04-12T10:14:50;22.73;;;8.60;;
70270;SDS011;57680;54.292;18.598;2023-04-12T10:17:16;21.80;;;8.73;;
70270;SDS011;57680;54.292;18.598;2023-04-12T10:19:45;19.25;;;7.72;;
70270;SDS011;57680;54.292;18.598;2023-04-12T10:22:11;18.35;;;8.02;;
70270;SDS011;57680;54.292;18.598;2023-04-12T10:24:37;21.20;;;7.13;;
70270;SDS011;57680;54.292;18.598;2023-04-12T10:27:03;19.20;;;7.88;;
70270;SDS011;57680;54.292;18.598;2023-04-12T10:29:31;14.30;;;6.25;;
70270;SDS011;57680;54.292;18.598;2023-04-12T10:31:58;15.37;;;6.43;;
70270;SDS011;57680;54.292;18.598;2023-04-12T10:34:43;18.48;;;6.90;;
70270;SDS011;57680;54.292;18.598;2023-04-12T10:37:08;17.50;;;7.03;;
70270;SDS011;57680;54.292;18.598;2023-04-12T10:39:35;19.53;;;6.87;;
70270;SDS011;57680;54.292;18.598;2023-04-12T10:42:18;16.70;;;6.90;;
70270;SDS011;57680;54.292;18.598;2023-04-12T10:44:51;15.00;;;6.77;;
70270;SDS011;57680;54.292;18.598;2023-04-12T10:50:30;16.73;;;6.95;;
70270;SDS011;57680;54.292;18.598;2023-04-12T10:55:37;19.15;;;8.25;;
70270;SDS011;57680;54.292;18.598;2023-04-12T10:58:06;19.20;;;8.30;;
70270;SDS011;57680;54.292;18.598;2023-04-12T11:03:28;20.27;;;7.82;;
70270;SDS011;57680;54.292;18.598;2023-04-12T11:05:55;23.30;;;9.70;;
70270;SDS011;57680;54.292;18.598;2023-04-12T11:08:22;22.33;;;9.57;;
70270;SDS011;57680;54.292;18.598;2023-04-12T11:10:47;22.48;;;9.57;;
70270;SDS011;57680;54.292;18.598;2023-04-12T11:13:14;21.95;;;9.30;;
70270;SDS011;57680;54.292;18.598;2023-04-12T11:15:40;22.70;;;9.82;;
70270;SDS011;57680;54.292;18.598;2023-04-12T11:18:05;21.43;;;9.73;;
70270;SDS011;57680;54.292;18.598;2023-04-12T11:20:31;21.73;;;9.27;;
70270;SDS011;57680;54.292;18.598;2023-04-12T11:22:56;23.10;;;9.57;;
70270;SDS011;57680;54.292;18.598;2023-04-12T11:25:22;21.80;;;9.80;;
70270;SDS011;57680;54.292;18.598;2023-04-12T11:27:51;23.80;;;9.82;;
70270;SDS011;57680;54.292;18.598;2023-04-12T11:30:17;20.45;;;9.55;;
70270;SDS011;57680;54.292;18.598;2023-04-12T11:32:43;27.33;;;10.53;;
70270;SDS011;57680;54.292;18.598;2023-04-12T11:35:10;22.45;;;9.55;;
70270;SDS011;57680;54.292;18.598;2023-04-12T11:37:36;23.60;;;9.68;;
70270;SDS011;57680;54.292;18.598;2023-04-12T11:40:02;22.65;;;10.25;;
70270;SDS011;57680;54.292;18.598;2023-04-12T11:42:27;22.50;;;9.23;;
70270;SDS011;57680;54.292;18.598;2023-04-12T11:44:53;21.25;;;9.30;;
70270;SDS011;57680;54.292;18.598;2023-04-12T11:47:20;20.27;;;8.73;;
70270;SDS011;57680;54.292;18.598;2023-04-12T11:49:47;23.15;;;10.05;;
70270;SDS011;57680;54.292;18.598;2023-04-12T11:52:20;21.42;;;8.85;;
70270;SDS011;57680;54.292;18.598;2023-04-12T11:54:47;24.23;;;9.55;;
70270;SDS011;57680;54.292;18.598;2023-04-12T11:57:14;21.70;;;9.50;;
70270;SDS011;57680;54.292;18.598;2023-04-12T11:59:45;21.40;;;9.57;;
70270;SDS011;57680;54.292;18.598;2023-04-12T12:02:12;24.08;;;10.00;;
70270;SDS011;57680;54.292;18.598;2023-04-12T12:04:40;23.08;;;9.25;;
70270;SDS011;57680;54.292;18.598;2023-04-12T12:07:07;22.30;;;9.43;;
70270;SDS011;57680;54.292;18.598;2023-04-12T12:09:33;22.13;;;9.83;;
70270;SDS011;57680;54.292;18.598;2023-04-12T12:11:59;24.80;;;9.90;;
70270;SDS011;57680;54.292;18.598;2023-04-12T12:14:24;24.60;;;10.77;;
70270;SDS011;57680;54.292;18.598;2023-04-12T12:16:51;24.10;;;10.40;;
70270;SDS011;57680;54.292;18.598;2023-04-12T12:19:25;26.42;;;11.13;;
70270;SDS011;57680;54.292;18.598;2023-04-12T12:21:51;25.42;;;10.18;;
70270;SDS011;57680;54.292;18.598;2023-04-12T12:24:16;23.13;;;10.57;;
70270;SDS011;57680;54.292;18.598;2023-04-12T12:26:42;26.40;;;10.40;;
70270;SDS011;57680;54.292;18.598;2023-04-12T12:29:15;27.60;;;11.20;;
70270;SDS011;57680;54.292;18.598;2023-04-12T12:31:44;26.65;;;11.48;;
70270;SDS011;57680;54.292;18.598;2023-04-12T12:34:12;28.38;;;11.90;;
70270;SDS011;57680;54.292;18.598;2023-04-12T12:36:37;27.45;;;11.70;;
70270;SDS011;57680;54.292;18.598;2023-04-12T12:41:30;29.80;;;12.40;;
70270;SDS011;57680;54.292;18.598;2023-04-12T12:43:55;25.93;;;12.00;;
70270;SDS011;57680;54.292;18.598;2023-04-12T12:46:21;27.83;;;12.03;;
70270;SDS011;57680;54.292;18.598;2023-04-12T12:48:48;25.83;;;12.33;;
70270;SDS011;57680;54.292;18.598;2023-04-12T12:51:14;26.98;;;11.93;;
70270;SDS011;57680;54.292;18.598;2023-04-12T12:53:40;26.90;;;11.93;;
70270;SDS011;57680;54.292;18.598;2023-04-12T12:56:09;28.60;;;12.67;;
70270;SDS011;57680;54.292;18.598;2023-04-12T12:58:36;27.77;;;12.10;;
70270;SDS011;57680;54.292;18.598;2023-04-12T13:01:01;26.43;;;11.93;;
70270;SDS011;57680;54.292;18.598;2023-04-12T13:03:27;27.50;;;12.23;;
70270;SDS011;57680;54.292;18.598;2023-04-12T13:05:52;26.97;;;12.57;;
70270;SDS011;57680;54.292;18.598;2023-04-12T13:08:18;29.45;;;12.27;;
70270;SDS011;57680;54.292;18.598;2023-04-12T13:10:43;28.10;;;12.47;;
70270;SDS011;57680;54.292;18.598;2023-04-12T13:13:09;28.70;;;13.13;;
70270;SDS011;57680;54.292;18.598;2023-04-12T13:15:34;28.57;;;12.30;;
70270;SDS011;57680;54.292;18.598;2023-04-12T13:17:59;26.13;;;11.87;;
70270;SDS011;57680;54.292;18.598;2023-04-12T13:20:25;28.53;;;12.50;;
70270;SDS011;57680;54.292;18.598;2023-04-12T13:22:51;26.93;;;12.03;;
70270;SDS011;57680;54.292;18.598;2023-04-12T13:25:16;29.33;;;12.53;;
70270;SDS011;57680;54.292;18.598;2023-04-12T13:27:42;28.23;;;12.70;;
70270;SDS011;57680;54.292;18.598;2023-04-12T13:30:07;27.57;;;12.30;;
70270;SDS011;57680;54.292;18.598;2023-04-12T13:32:33;28.23;;;12.52;;
70270;SDS011;57680;54.292;18.598;2023-04-12T13:34:59;29.73;;;12.43;;
70270;SDS011;57680;54.292;18.598;2023-04-12T13:37:24;25.63;;;11.70;;
70270;SDS011;57680;54.292;18.598;2023-04-12T13:39:50;27.20;;;12.00;;
70270;SDS011;57680;54.292;18.598;2023-04-12T13:42:15;25.23;;;10.87;;
70270;SDS011;57680;54.292;18.598;2023-04-12T13:44:41;27.63;;;11.80;;
70270;SDS011;57680;54.292;18.598;2023-04-12T13:47:06;26.60;;;11.37;;
70270;SDS011;57680;54.292;18.598;2023-04-12T13:49:32;25.00;;;11.90;;
70270;SDS011;57680;54.292;18.598;2023-04-12T13:51:57;25.60;;;12.10;;
70270;SDS011;57680;54.292;18.598;2023-04-12T13:54:22;24.67;;;11.50;;
70270;SDS011;57680;54.292;18.598;2023-04-12T13:56:48;26.47;;;11.27;;
70270;SDS011;57680;54.292;18.598;2023-04-12T13:59:14;23.47;;;11.43;;
70270;SDS011;57680;54.292;18.598;2023-04-12T14:01:39;23.23;;;10.45;;
70270;SDS011;57680;54.292;18.598;2023-04-12T14:04:05;22.93;;;10.57;;
70270;SDS011;57680;54.292;18.598;2023-04-12T14:06:31;25.65;;;10.75;;
70270;SDS011;57680;54.292;18.598;2023-04-12T14:08:56;23.17;;;10.10;;
70270;SDS011;57680;54.292;18.598;2023-04-12T14:11:23;22.47;;;10.20;;
70270;SDS011;57680;54.292;18.598;2023-04-12T14:13:48;26.23;;;11.80;;
70270;SDS011;57680;54.292;18.598;2023-04-12T14:16:14;22.60;;;10.30;;
70270;SDS011;57680;54.292;18.598;2023-04-12T14:18:39;22.92;;;10.75;;
70270;SDS011;57680;54.292;18.598;2023-04-12T14:21:05;21.67;;;9.67;;
70270;SDS011;57680;54.292;18.598;2023-04-12T14:23:30;22.90;;;10.30;;
70270;SDS011;57680;54.292;18.598;2023-04-12T14:25:56;21.33;;;9.80;;
70270;SDS011;57680;54.292;18.598;2023-04-12T14:28:21;21.43;;;10.10;;
70270;SDS011;57680;54.292;18.598;2023-04-12T14:30:49;21.53;;;9.93;;
70270;SDS011;57680;54.292;18.598;2023-04-12T14:33:15;20.83;;;9.75;;
70270;SDS011;57680;54.292;18.598;2023-04-12T14:35:41;19.35;;;9.25;;
70270;SDS011;57680;54.292;18.598;2023-04-12T14:38:07;20.57;;;8.97;;